Relevés horaires Bierset (Belgique)


Relevés horaires à Bierset - Jeudi 28 Juin 2018
Heure UTC1 Température [°C] Vent [km/h] Hum. [%] Pres.4 [hPa] Visi. [Km] Nébu. [octa] Préc.5 [mm] Cond.
2m. Res. Ros. Dir.2 Vit. Moy. Raf.3
23:00 17.5 17.5 10.8 NNE 3.7 3.7 5.6 65 1020.1(0.4/3h) 50 0/8 -- --
22:00 18.3 18.3 10.6 NNE 3.7 3.7 5.6 61 1020(0.6/3h) 50 1/8 -- --
21:00 19.4 19.4 10.3 NNE 3.7 9.3 13.0 56 1019.8(0.5/3h) 30 1/8 -- --
20:00 20.8 20.8 10.5 NNE 5.6 7.4 11.1 52 1019.4(0.0/3h) 45 1/8 -- --
19:00 23.2 23.2 9.8 NE 7.4 9.3 13.0 43 1019.1(-0.4/3h) 40 1/8 -- --
18:00 24.6 24.6 9.9 NE 7.4 13.0 20.4 39 1018.9(-1.0/3h) 30 2/8 0/12h
--
17:00 25.2 25.2 8.3 NE 11.1 13.0 18.5 34 1019.1(-1.2/3h) 30 1/8 -- --
16:00 26.0 26.0 9.0 NE 11.1 11.1 18.5 34 1019.3(-1.6/3h) 30 1/8 -- --
15:00 25.9 25.9 9.7 NE 9.3 13.0 20.4 36 1019.8(-1.7/3h) 30 3/8 -- --
14:00 25.6 25.6 9.3 NE 9.3 11.1 18.5 36 1020.3(-1.6/3h) 30 3/8 -- --
13:00 25.6 25.6 10.0 NNE 11.1 11.1 18.5 37 1021(-1.4/3h) 30 2/8 -- --
12:00 24.9 24.9 9.2 ENE 9.3 14.8 22.2 37 1021.6(-1.0/3h) 30 2/8 0/6h
--
11:00 24.1 24.1 8.9 NE 13.0 14.8 20.4 38 1022(-0.9/3h) 30 2/8 -- --
10:00 24.0 24.0 9.5 ENE 11.1 13.0 22.2 40 1022.5(-0.4/3h) 30 1/8 -- --
09:00 22.3 22.3 10.0 NE 11.1 11.1 14.8 46 1022.8(0.1/3h) 30 1/8 -- --
08:00 21.1 21.1 10.9 NE 7.4 7.4 9.3 52 1023.1(0.3/3h) 30 1/8 -- --
07:00 19.2 19.2 10.3 NE 5.6 5.6 9.3 56 1023.3(0.4/3h) 30 0/8 -- --
06:00 17.4 17.4 11.4 N 3.7 7.4 16.7 68 1023.1(0.4/3h) 30 0/8 0/12h
--
05:00 15.2 15.2 10.2 NE 5.6 7.4 14.8 72 1023.3(0.3/3h) 30 0/8 -- --
04:00 13.3 13.3 9.2 NE 3.7 5.6 9.3 76 1023.3(0.0/3h) 30 0/8 -- --
03:00 14.4 14.4 9.0 NE 5.6 5.6 16.7 70 1023(0.2/3h) 30 0/8 -- --
02:00 15.8 15.8 9.1 ENE 3.7 5.6 16.7 64 1022.9(0.0/3h) 30 0/8 -- --
01:00 17.1 17.1 9.5 ENE 3.7 5.6 9.3 61 1023(0.4/3h) 30 0/8 -- --
00:00 18.4 18.4 9.5 E 5.6 13.0 20.4 56 1022.8(0.3/3h) 30 1/8 0/6h
0/24h
--

1 Coordinated Universal Time. Actuellement il est 00:00 locale et 23:00 UTC.

2 Le vent souffle depuis la direction indiquée vers la direction oposée.

3 Les rafales max. sont disponible 40 min après l'heure du relevé.

4 Pour les stations d'altitude (plus de 600m) le géopotentiel du niveau le plus proche de la pression obligatoire est indiqué.

5 Les stations disposant d'un diffuseur peuvent indiquer "trace". Cela signifie que des précipitations ont touchés le sol mais que la quantité est inférieure à 0.1 mm.

Récapitulatif de la journée
Température [°C] Vent [km/h] Ensoleillement4 [h] Precipitations totale5 [mm] Pression [Hpa]
Min1 Max.2 Moy.3 Max. Min Max.
13.0 26.7 9.3 22.2 0 h 0 min 0 1018.9 1023.3

1 Température minimale relevée entre 18:00 UTC la veille et 18:00 UTC le jour donné.

2 Température maximale relevée entre 06:00 UTC le jour donné et 06:00 UTC le lendemain.

3 Vent moyen de la journée basé sur les relevés horaires.

4 Ensoleillement en heures relevé entre 06:00 UTC la veille et 06:00 UTC le jour donné.

5 Précipitations totales tombées entre 06:00 UTC la jour donné et 06:00 UTC le lendemain.

Graphiques horaires